Time;durP1;ratioP1;P1;durP2;ratioP2;P2;SDS_P1;SDS_P2;PMS_P1;PMS_P2;Temp;Humidity;BMP_temperature;BMP_pressure;BME280_temperature;BME280_humidity;BME280_pressure;Samples;Min_cycle;Max_cycle;Signal;HPM_P1;HPM_P2
2021/05/02 00:01:58;;;;;;;40.63;31.13;;;;;;;10.19;71.08;98150.93;2265719;79;21459;-80
2021/05/02 00:04:59;;;;;;;40.60;30.33;;;;;;;10.22;71.10;98150.09;2265366;78;21125;-79
2021/05/02 00:08:00;;;;;;;39.67;31.30;;;;;;;10.23;71.00;98143.14;2264592;78;21149;-79
2021/05/02 00:11:01;;;;;;;35.10;29.63;;;;;;;10.28;71.00;98146.63;2260928;78;21071;-80
2021/05/02 00:14:02;;;;;;;35.63;28.57;;;;;;;10.29;71.00;98150.55;2260769;78;21103;-79
2021/05/02 00:17:03;;;;;;;42.53;31.40;;;;;;;10.29;70.92;98142.72;2261360;78;21252;-79
2021/05/02 00:20:05;;;;;;;38.17;29.93;;;;;;;10.31;71.00;98144.03;2260942;79;21400;-79
2021/05/02 00:23:06;;;;;;;37.70;27.57;;;;;;;10.31;70.89;98142.29;2261325;79;21157;-80
2021/05/02 00:26:07;;;;;;;38.03;28.77;;;;;;;10.31;71.09;98129.68;2261124;78;21098;-79
2021/05/02 00:29:08;;;;;;;39.83;29.57;;;;;;;10.30;70.91;98127.94;2260910;78;21059;-79
2021/05/02 00:32:10;;;;;;;35.47;28.27;;;;;;;10.31;70.88;98120.12;2261219;78;21078;-79
2021/05/02 00:35:11;;;;;;;39.80;29.13;;;;;;;10.29;70.83;98118.37;2261029;78;21099;-79
2021/05/02 00:38:12;;;;;;;39.10;30.43;;;;;;;10.27;70.85;98113.16;2261351;78;21099;-78
2021/05/02 00:41:13;;;;;;;38.40;29.47;;;;;;;10.27;70.88;98113.59;2261101;78;21146;-80
2021/05/02 00:44:14;;;;;;;35.60;27.87;;;;;;;10.24;70.92;98108.37;2261397;78;21145;-79
2021/05/02 00:47:15;;;;;;;37.10;29.57;;;;;;;10.21;70.99;98103.58;2261348;78;21103;-79
2021/05/02 00:50:18;;;;;;;37.37;30.43;;;;;;;10.14;70.93;98110.06;2260879;78;21097;-78
2021/05/02 00:53:19;;;;;;;38.03;28.80;;;;;;;10.13;71.43;98108.32;2260768;78;21129;-79
2021/05/02 00:56:20;;;;;;;40.80;30.07;;;;;;;10.07;71.47;98102.66;2261128;78;21225;-79
2021/05/02 00:59:21;;;;;;;33.93;28.40;;;;;;;10.06;71.34;98102.66;2261204;78;21106;-79
2021/05/02 01:02:22;;;;;;;36.43;29.60;;;;;;;10.11;71.44;98100.49;2261005;79;21146;-80
2021/05/02 01:05:23;;;;;;;37.63;28.47;;;;;;;10.13;71.47;98087.45;2261153;78;21496;-79
2021/05/02 01:08:24;;;;;;;41.80;29.63;;;;;;;10.13;71.45;98075.29;2262734;78;21102;-79
2021/05/02 01:11:25;;;;;;;41.50;29.60;;;;;;;10.14;71.50;98058.77;2262487;78;21110;-80
2021/05/02 01:14:28;;;;;;;43.03;29.47;;;;;;;10.13;71.53;98058.34;2262172;78;21252;-78
2021/05/02 01:17:29;;;;;;;40.97;29.83;;;;;;;10.14;71.64;98044.86;2261589;78;21232;-78
2021/05/02 01:20:30;;;;;;;35.43;27.67;;;;;;;10.14;71.47;98024.88;2261840;78;21209;-79
2021/05/02 01:23:31;;;;;;;35.43;28.80;;;;;;;10.15;71.40;98008.36;2262088;78;21459;-79
2021/05/02 01:26:32;;;;;;;38.37;29.63;;;;;;;10.15;71.53;97984.88;2262059;78;21407;-79
2021/05/02 01:29:33;;;;;;;39.07;29.53;;;;;;;10.19;71.59;97988.36;2262076;78;21110;-79
2021/05/02 01:32:34;;;;;;;38.80;27.87;;;;;;;10.19;71.47;97993.58;2262161;78;21095;-79
2021/05/02 01:35:35;;;;;;;41.10;30.17;;;;;;;10.12;71.63;97994.45;2262196;78;21110;-80
2021/05/02 01:38:36;;;;;;;38.50;30.43;;;;;;;10.12;71.58;97996.63;2262547;78;21107;-79
2021/05/02 01:41:37;;;;;;;44.37;32.03;;;;;;;10.09;71.78;97984.88;2262487;78;21165;-78
2021/05/02 01:44:38;;;;;;;41.13;30.93;;;;;;;10.09;71.87;97986.19;2262522;78;21138;-79
2021/05/02 01:47:39;;;;;;;43.17;32.77;;;;;;;10.08;71.84;98001.41;2262474;78;21094;-79
2021/05/02 01:50:41;;;;;;;47.70;32.73;;;;;;;10.11;71.87;97990.10;2262344;78;21090;-79
2021/05/02 01:53:42;;;;;;;46.87;32.83;;;;;;;10.17;71.76;97978.36;2262520;78;21106;-79
2021/05/02 01:56:43;;;;;;;39.23;31.00;;;;;;;10.21;71.84;97936.66;2262132;78;21086;-78
2021/05/02 01:59:44;;;;;;;39.83;30.93;;;;;;;10.23;71.68;97921.45;2261787;78;21098;-79
2021/05/02 02:02:45;;;;;;;44.87;32.70;;;;;;;10.23;71.75;97913.63;2262276;78;21133;-79
2021/05/02 02:05:46;;;;;;;45.83;33.90;;;;;;;10.19;72.03;97903.60;2262264;78;21102;-80
2021/05/02 02:08:47;;;;;;;45.27;33.40;;;;;;;10.16;71.98;97900.56;2274610;77;21145;-79
2021/05/02 02:11:48;;;;;;;46.00;33.60;;;;;;;10.15;72.15;97907.09;2302146;77;21100;-79
2021/05/02 02:14:49;;;;;;;118.17;53.87;;;;;;;10.15;72.08;97914.91;2279016;77;21256;-81
2021/05/02 02:17:50;;;;;;;49.63;34.27;;;;;;;11.17;76.07;97918.55;2265379;78;21130;-79
2021/05/02 02:20:52;;;;;;;44.27;33.27;;;;;;;12.58;69.79;97902.67;2265438;78;21102;-80
2021/05/02 02:23:53;;;;;;;48.37;31.83;;;;;;;12.08;68.20;97880.47;2265543;78;21101;-80
2021/05/02 02:26:54;;;;;;;45.30;32.40;;;;;;;11.64;68.35;97871.67;2265440;78;21106;-79
2021/05/02 02:29:55;;;;;;;47.33;32.73;;;;;;;11.34;68.86;97871.02;2265388;78;21106;-79
2021/05/02 02:32:56;;;;;;;49.93;34.13;;;;;;;11.06;69.34;97864.20;2265546;78;21395;-80
2021/05/02 02:35:57;;;;;;;47.70;32.90;;;;;;;10.88;69.91;97859.08;2265344;78;21102;-80
2021/05/02 02:38:58;;;;;;;48.23;31.73;;;;;;;10.76;70.04;97855.65;2265679;78;21075;-79
2021/05/02 02:42:00;;;;;;;50.57;34.93;;;;;;;10.69;70.65;97855.25;2265369;78;21253;-79
2021/05/02 02:45:01;;;;;;;55.07;34.37;;;;;;;10.63;70.53;97842.23;2265424;78;21130;-79
2021/05/02 02:48:02;;;;;;;45.97;32.23;;;;;;;10.60;70.78;97837.02;2265633;79;21105;-79
2021/05/02 02:51:03;;;;;;;48.93;33.40;;;;;;;10.54;70.93;97829.22;2265001;78;21070;-79
2021/05/02 02:54:04;;;;;;;49.97;32.70;;;;;;;10.44;71.32;97815.34;2264945;78;21360;-79
2021/05/02 02:57:05;;;;;;;50.87;33.33;;;;;;;10.37;71.72;97797.95;2265272;78;21206;-80
2021/05/02 03:00:06;;;;;;;47.13;31.67;;;;;;;10.32;71.69;97795.80;2265086;78;21103;-79
2021/05/02 03:03:07;;;;;;;45.97;31.67;;;;;;;10.32;71.82;97791.02;2265309;78;21157;-79
2021/05/02 03:06:09;;;;;;;47.83;32.50;;;;;;;10.29;71.60;97790.59;2265327;78;21229;-79
2021/05/02 03:09:10;;;;;;;43.93;30.07;;;;;;;10.28;71.56;97804.94;2266869;78;21158;-79
2021/05/02 03:12:11;;;;;;;48.47;31.77;;;;;;;10.28;71.60;97814.07;2268645;78;21105;-79
2021/05/02 03:15:12;;;;;;;47.93;33.03;;;;;;;10.25;71.59;97813.64;2268664;78;21145;-79
2021/05/02 03:18:13;;;;;;;43.87;31.90;;;;;;;10.27;71.62;97786.25;2261150;78;21387;-79
2021/05/02 03:21:14;;;;;;;42.63;30.37;;;;;;;10.28;71.67;97752.78;2260866;78;21110;-78
2021/05/02 03:24:15;;;;;;;40.60;29.87;;;;;;;10.26;72.08;97737.57;2260060;78;21107;-77
2021/05/02 03:27:16;;;;;;;41.47;29.70;;;;;;;10.24;72.06;97744.54;2259969;78;21086;-78
2021/05/02 03:30:17;;;;;;;42.13;29.60;;;;;;;10.21;71.93;97753.24;2260410;78;21424;-79
2021/05/02 03:33:19;;;;;;;42.60;29.07;;;;;;;10.24;71.79;97739.32;2261363;78;21082;-79
2021/05/02 03:36:20;;;;;;;42.97;30.33;;;;;;;10.24;72.20;97736.72;2260952;78;21213;-79
2021/05/02 03:39:21;;;;;;;42.83;31.40;;;;;;;10.22;72.36;97727.59;2261147;78;21197;-79
2021/05/02 03:42:22;;;;;;;39.67;28.27;;;;;;;10.23;72.23;97706.29;2260927;79;21280;-81
2021/05/02 03:45:23;;;;;;;41.07;29.67;;;;;;;10.24;72.29;97694.98;2260939;79;21260;-80
2021/05/02 03:48:25;;;;;;;42.10;27.83;;;;;;;10.29;72.36;97697.13;2261289;78;21103;-80
2021/05/02 03:51:26;;;;;;;41.63;31.20;;;;;;;10.32;72.72;97704.94;2260939;78;21106;-79
2021/05/02 03:54:27;;;;;;;42.53;30.97;;;;;;;10.35;72.31;97708.84;2260892;79;21110;-79
2021/05/02 03:57:28;;;;;;;42.63;30.63;;;;;;;10.38;72.50;97689.26;2260839;78;21075;-80
2021/05/02 04:00:29;;;;;;;43.10;31.23;;;;;;;10.38;72.89;97681.44;2261105;78;21226;-79
2021/05/02 04:03:30;;;;;;;47.27;31.33;;;;;;;10.38;72.57;97674.91;2260901;78;21265;-80
2021/05/02 04:06:33;;;;;;;45.27;31.50;;;;;;;10.42;72.67;97672.74;2261116;78;21107;-79
2021/05/02 04:09:34;;;;;;;45.77;29.77;;;;;;;10.44;72.64;97664.03;2254966;78;21547;-79
2021/05/02 04:12:36;;;;;;;41.07;30.17;;;;;;;10.48;72.70;97650.53;2247589;79;21100;-78
2021/05/02 04:15:37;;;;;;;47.30;33.33;;;;;;;10.52;73.20;97639.19;2247718;79;21131;-81
2021/05/02 04:18:38;;;;;;;43.13;30.40;;;;;;;10.52;72.90;97630.92;2247525;79;21099;-79
2021/05/02 04:21:39;;;;;;;43.37;31.10;;;;;;;10.58;73.25;97617.41;2247460;79;21445;-79
2021/05/02 04:24:40;;;;;;;43.70;31.37;;;;;;;10.58;72.90;97615.66;2247543;79;21346;-80
2021/05/02 04:27:41;;;;;;;45.13;32.27;;;;;;;10.62;73.10;97616.06;2247540;79;21377;-79
2021/05/02 04:30:42;;;;;;;42.70;31.33;;;;;;;10.65;73.36;97617.78;2247995;79;21111;-80
2021/05/02 04:33:43;;;;;;;50.73;31.90;;;;;;;10.68;73.28;97605.58;2247923;79;21100;-79
2021/05/02 04:36:44;;;;;;;43.10;29.67;;;;;;;10.72;73.26;97611.64;2247870;79;21071;-79
2021/05/02 04:39:45;;;;;;;43.97;33.30;;;;;;;10.74;73.43;97610.75;2247847;79;21067;-80
2021/05/02 04:42:46;;;;;;;49.03;31.97;;;;;;;10.75;73.35;97613.78;2247995;79;21397;-79
2021/05/02 04:45:47;;;;;;;44.60;30.87;;;;;;;10.80;73.12;97604.17;2247696;79;21142;-79
2021/05/02 04:48:48;;;;;;;45.97;33.27;;;;;;;10.86;73.14;97596.72;2247582;79;21087;-78
2021/05/02 04:51:49;;;;;;;43.80;31.20;;;;;;;10.87;73.54;97584.09;2247085;79;21103;-79
2021/05/02 04:54:50;;;;;;;41.83;30.60;;;;;;;10.88;73.25;97574.52;2247180;79;21357;-78
2021/05/02 04:57:51;;;;;;;44.73;31.13;;;;;;;10.92;73.07;97576.22;2247844;79;21103;-79
2021/05/02 05:00:52;;;;;;;40.20;29.13;;;;;;;10.97;72.86;97573.12;2247788;79;21111;-79
2021/05/02 05:03:53;;;;;;;41.37;28.87;;;;;;;10.93;72.99;97560.98;2247555;79;21234;-82
2021/05/02 05:06:56;;;;;;;41.43;28.23;;;;;;;10.98;72.89;97551.36;2247173;79;21059;-80
2021/05/02 05:09:57;;;;;;;33.00;25.63;;;;;;;11.03;73.00;97543.03;2262073;78;21137;-80
2021/05/02 05:12:58;;;;;;;41.43;29.87;;;;;;;11.02;73.23;97534.77;2261802;78;21106;-80
2021/05/02 05:15:59;;;;;;;40.73;28.07;;;;;;;10.98;73.63;97531.77;2262375;78;21142;-81
2021/05/02 05:19:00;;;;;;;37.03;28.97;;;;;;;10.93;73.37;97533.56;2261907;78;21220;-81
2021/05/02 05:22:02;;;;;;;44.43;31.20;;;;;;;10.93;73.52;97537.48;2261860;78;21114;-80
2021/05/02 05:25:03;;;;;;;42.00;30.17;;;;;;;10.92;73.55;97535.31;2261733;79;21125;-80
2021/05/02 05:28:05;;;;;;;39.47;30.27;;;;;;;10.90;73.72;97524.02;2261815;78;21105;-81
2021/05/02 05:31:06;;;;;;;43.10;29.83;;;;;;;10.89;73.97;97520.12;2261831;79;21110;-81
2021/05/02 05:34:07;;;;;;;42.33;30.90;;;;;;;10.86;73.91;97522.33;2262070;78;21213;-81
2021/05/02 05:37:08;;;;;;;44.10;31.57;;;;;;;10.83;74.25;97513.22;2261653;78;21094;-80
2021/05/02 05:40:09;;;;;;;40.73;31.27;;;;;;;10.83;74.26;97501.47;2261943;78;21103;-81
2021/05/02 05:43:10;;;;;;;42.57;32.03;;;;;;;10.84;74.28;97493.63;2261630;78;21478;-82
2021/05/02 05:46:13;;;;;;;44.80;32.10;;;;;;;10.88;74.93;97489.67;2261631;79;21150;-81
2021/05/02 05:49:18;;;;;;;46.53;32.80;;;;;;;10.89;74.65;97492.71;2261794;78;21099;-82
2021/05/02 05:52:18;;;;;;;43.53;33.13;;;;;;;10.88;74.83;97484.02;2261374;78;21094;-80
2021/05/02 05:55:19;;;;;;;40.50;32.73;;;;;;;10.89;75.36;97484.88;2261529;78;21125;-83
2021/05/02 05:58:20;;;;;;;49.17;36.63;;;;;;;10.90;75.19;97482.69;2261758;79;21113;-82
2021/05/02 06:01:21;;;;;;;49.93;35.07;;;;;;;10.95;75.11;97473.92;2261504;78;21115;-81
2021/05/02 06:04:22;;;;;;;46.67;35.13;;;;;;;11.04;75.11;97467.73;2261572;78;21276;-82
2021/05/02 06:07:23;;;;;;;48.30;35.07;;;;;;;11.07;75.22;97461.17;2261436;78;21395;-83
2021/05/02 06:10:24;;;;;;;47.87;35.90;;;;;;;11.08;75.38;97467.67;2258228;78;21145;-83
2021/05/02 06:13:25;;;;;;;49.13;36.30;;;;;;;11.11;75.61;97469.39;2260745;78;21090;-84
2021/05/02 06:16:26;;;;;;;47.17;38.67;;;;;;;11.13;75.59;97461.95;2260518;78;21134;-82
2021/05/02 06:19:28;;;;;;;44.67;35.93;;;;;;;11.17;75.60;97451.03;2260518;78;21109;-82
2021/05/02 06:22:29;;;;;;;48.13;36.67;;;;;;;11.21;75.72;97444.88;2260381;78;21385;-83
2021/05/02 06:25:31;;;;;;;43.65;35.68;;;;;;;11.24;75.89;97467.05;2260000;78;21130;-81
2021/05/02 06:28:33;;;;;;;44.67;35.63;;;;;;;11.25;75.98;97457.02;2260254;78;21095;-81
2021/05/02 06:31:34;;;;;;;41.90;35.93;;;;;;;11.23;76.25;97463.14;2261007;78;21063;-81
2021/05/02 06:34:35;;;;;;;48.90;36.90;;;;;;;11.20;76.36;97463.19;2260429;78;21129;-81
2021/05/02 06:37:36;;;;;;;44.50;35.17;;;;;;;11.17;76.48;97468.00;2260605;78;21106;-81
2021/05/02 06:40:37;;;;;;;42.47;35.07;;;;;;;11.13;77.21;97454.56;2260686;78;21098;-82
2021/05/02 06:43:38;;;;;;;46.68;37.90;;;;;;;11.08;76.89;97449.84;2261175;78;21398;-81
2021/05/02 06:46:39;;;;;;;46.92;37.75;;;;;;;11.07;77.05;97460.72;2260711;78;21127;-80
2021/05/02 06:49:40;;;;;;;45.90;37.43;;;;;;;11.06;77.14;97469.88;2260833;78;21086;-81
2021/05/02 06:52:41;;;;;;;48.80;38.87;;;;;;;11.06;77.32;97474.66;2260943;78;21102;-81
2021/05/02 06:55:42;;;;;;;44.98;37.98;;;;;;;11.09;77.20;97463.31;2260560;78;21134;-79
2021/05/02 06:58:43;;;;;;;41.47;36.27;;;;;;;11.12;77.16;97452.84;2260723;78;21099;-81
2021/05/02 07:01:44;;;;;;;42.07;37.20;;;;;;;11.16;77.24;97456.69;2260724;78;21162;-81
2021/05/02 07:04:46;;;;;;;51.57;38.03;;;;;;;11.20;77.34;97456.21;2260914;78;21102;-80
2021/05/02 07:07:47;;;;;;;47.53;38.47;;;;;;;11.25;77.49;97446.57;2260604;78;21107;-80
2021/05/02 07:10:48;;;;;;;44.03;34.90;;;;;;;11.31;77.53;97443.05;2252431;78;21253;-80
2021/05/02 07:13:49;;;;;;;41.83;34.17;;;;;;;11.35;77.54;97436.45;2247641;79;21103;-81
2021/05/02 07:16:50;;;;;;;44.23;36.55;;;;;;;11.43;77.79;97428.51;2247554;79;21158;-81
2021/05/02 07:19:51;;;;;;;40.78;34.45;;;;;;;11.48;77.68;97421.02;2247581;79;21095;-79
2021/05/02 07:22:53;;;;;;;34.43;30.70;;;;;;;11.60;77.86;97412.58;2247521;79;21115;-82
2021/05/02 07:25:54;;;;;;;37.45;33.50;;;;;;;11.66;78.75;97392.45;2247525;79;21133;-81
2021/05/02 07:28:55;;;;;;;33.92;29.82;;;;;;;11.67;77.90;97390.25;2247494;79;21099;-81
2021/05/02 07:31:56;;;;;;;32.40;28.62;;;;;;;11.68;78.72;97367.59;2247570;79;21118;-82
2021/05/02 07:34:57;;;;;;;33.50;29.52;;;;;;;11.64;78.60;97352.84;2247572;79;21225;-80
2021/05/02 07:37:58;;;;;;;31.77;27.70;;;;;;;11.61;78.41;97345.92;2247969;79;21071;-82
2021/05/02 07:40:59;;;;;;;32.80;28.85;;;;;;;11.61;78.50;97322.84;2247475;79;21075;-80
2021/05/02 07:44:00;;;;;;;35.43;31.60;;;;;;;11.58;78.72;97304.16;2247131;79;21075;-82
2021/05/02 07:47:01;;;;;;;31.45;28.07;;;;;;;11.57;78.85;97294.59;2247409;79;21135;-82
2021/05/02 07:50:02;;;;;;;29.63;26.00;;;;;;;11.54;79.75;97288.55;2246994;79;21107;-81
2021/05/02 07:53:03;;;;;;;33.27;26.90;;;;;;;11.49;79.61;97276.42;2246780;79;21118;-82
2021/05/02 07:56:05;;;;;;;27.20;22.62;;;;;;;11.45;79.27;97269.53;2246544;79;21126;-81
2021/05/02 07:59:06;;;;;;;29.02;23.77;;;;;;;11.42;80.89;97247.81;2246311;79;21082;-81
2021/05/02 08:02:07;;;;;;;22.57;20.23;;;;;;;11.35;80.26;97240.97;2246735;79;21150;-82
2021/05/02 08:05:08;;;;;;;21.10;19.00;;;;;;;11.33;81.27;97237.08;2247521;79;21460;-81
2021/05/02 08:08:09;;;;;;;19.63;17.53;;;;;;;11.30;80.42;97221.45;2247922;79;21102;-80
2021/05/02 08:11:10;;;;;;;21.10;18.90;;;;;;;11.32;80.59;97213.15;2247622;78;21135;-81
2021/05/02 08:14:11;;;;;;;21.87;19.57;;;;;;;11.34;80.63;97198.31;2248259;79;21098;-82
2021/05/02 08:17:12;;;;;;;21.67;18.33;;;;;;;11.38;80.43;97189.53;2248135;79;21142;-81
2021/05/02 08:20:13;;;;;;;19.25;16.07;;;;;;;11.49;80.53;97181.50;2248061;79;21114;-81
2021/05/02 08:23:14;;;;;;;18.47;16.47;;;;;;;11.58;80.55;97181.77;2247859;79;21139;-81
2021/05/02 08:26:15;;;;;;;18.10;16.27;;;;;;;11.63;80.95;97200.40;2247731;79;21103;-82
2021/05/02 08:29:17;;;;;;;18.60;16.67;;;;;;;11.66;80.79;97200.79;2248149;79;21223;-82
2021/05/02 08:32:18;;;;;;;20.62;16.97;;;;;;;11.68;80.66;97213.38;2247776;79;21071;-81
2021/05/02 08:35:19;;;;;;;14.87;13.48;;;;;;;11.72;80.58;97204.15;2247846;79;21082;-82
2021/05/02 08:38:20;;;;;;;14.78;13.22;;;;;;;11.82;80.81;97197.47;2248051;79;21111;-81
2021/05/02 08:41:21;;;;;;;14.47;12.98;;;;;;;11.95;81.36;97190.66;2247927;79;21092;-81
2021/05/02 08:44:24;;;;;;;15.13;12.73;;;;;;;12.08;80.50;97188.66;2248006;79;21221;-81
2021/05/02 08:47:25;;;;;;;13.68;12.33;;;;;;;12.16;80.36;97197.25;2247824;79;21111;-80
2021/05/02 08:50:26;;;;;;;12.98;11.55;;;;;;;12.16;80.22;97197.69;2247778;79;21118;-82
2021/05/02 08:53:27;;;;;;;13.35;12.05;;;;;;;12.16;80.58;97193.32;2247386;79;21404;-81
2021/05/02 08:56:28;;;;;;;12.33;11.12;;;;;;;12.22;80.22;97195.81;2247553;79;21097;-80
2021/05/02 08:59:29;;;;;;;12.28;11.00;;;;;;;12.29;80.16;97199.16;2247840;79;21091;-80
2021/05/02 09:02:31;;;;;;;13.62;12.35;;;;;;;12.50;79.95;97200.01;2247818;79;21115;-82
2021/05/02 09:05:32;;;;;;;15.08;13.48;;;;;;;12.76;79.53;97179.34;2247863;79;21226;-81
2021/05/02 09:08:34;;;;;;;15.20;13.40;;;;;;;13.80;81.34;97171.52;2247569;79;21436;-81
2021/05/02 09:11:35;;;;;;;13.83;12.53;;;;;;;15.34;77.02;97169.50;2271207;78;21106;-81
2021/05/02 09:14:36;;;;;;;15.48;12.68;;;;;;;16.49;75.10;97157.95;2269121;78;21231;-80
2021/05/02 09:17:40;;;;;;;15.85;10.90;;;;;;;17.63;73.38;97148.52;2262093;78;21117;-82
2021/05/02 09:20:40;;;;;;;12.25;11.15;;;;;;;18.37;68.98;97147.02;2262151;79;21066;-83
2021/05/02 09:23:42;;;;;;;13.60;10.95;;;;;;;18.67;66.34;97143.89;2262474;78;21138;-81
2021/05/02 09:26:43;;;;;;;12.00;10.75;;;;;;;18.82;66.08;97135.70;2262305;79;21124;-81
2021/05/02 09:29:44;;;;;;;12.33;10.88;;;;;;;18.94;64.82;97150.50;2262169;78;21093;-81
2021/05/02 09:32:45;;;;;;;10.25;8.70;;;;;;;19.03;63.59;97145.23;2262274;78;21094;-81
2021/05/02 09:35:46;;;;;;;11.95;10.75;;;;;;;19.15;62.69;97157.89;2262297;78;21097;-81
2021/05/02 09:38:48;;;;;;;12.35;11.03;;;;;;;19.23;63.06;97149.11;2262033;78;21118;-82
2021/05/02 09:41:49;;;;;;;14.75;11.28;;;;;;;19.35;61.87;97155.11;2261927;78;21252;-81
2021/05/02 09:44:50;;;;;;;11.43;10.03;;;;;;;19.48;61.22;97146.55;2261845;78;21395;-81
2021/05/02 09:47:51;;;;;;;12.03;10.88;;;;;;;19.52;59.97;97142.82;2261940;78;21107;-80
2021/05/02 09:50:52;;;;;;;11.48;10.48;;;;;;;19.44;60.79;97140.56;2262213;78;21232;-82
2021/05/02 09:53:53;;;;;;;12.40;11.20;;;;;;;19.78;60.42;97133.58;2262003;78;21106;-82
2021/05/02 09:56:54;;;;;;;12.03;10.55;;;;;;;20.18;58.53;97130.56;2261999;78;21270;-81
2021/05/02 09:59:55;;;;;;;11.40;10.30;;;;;;;19.98;58.77;97136.06;2262014;78;21361;-81
2021/05/02 10:02:56;;;;;;;11.40;9.93;;;;;;;20.17;59.19;97133.29;2261977;78;21176;-82
2021/05/02 10:05:58;;;;;;;12.88;10.80;;;;;;;20.54;58.62;97139.66;2262167;78;21275;-82
2021/05/02 10:08:59;;;;;;;11.28;9.98;;;;;;;20.31;57.44;97141.35;2262136;78;21129;-82
2021/05/02 10:12:00;;;;;;;12.45;10.82;;;;;;;20.30;57.74;97147.12;2271121;78;21126;-83
2021/05/02 10:15:02;;;;;;;14.43;12.25;;;;;;;20.13;58.18;97158.23;2270894;77;21217;-81
2021/05/02 10:18:03;;;;;;;16.57;11.97;;;;;;;20.20;58.39;97166.24;2261555;78;21208;-82
2021/05/02 10:21:05;;;;;;;11.50;10.40;;;;;;;20.15;57.45;97185.03;2261302;78;21125;-82
2021/05/02 10:24:07;;;;;;;15.88;10.48;;;;;;;19.91;57.23;97184.48;2261499;78;21138;-82
2021/05/02 10:27:08;;;;;;;14.47;10.55;;;;;;;19.44;58.38;97189.52;2261571;78;21350;-82
2021/05/02 10:30:09;;;;;;;13.28;11.90;;;;;;;19.49;58.68;97190.14;2261403;78;21091;-81
2021/05/02 10:33:10;;;;;;;11.93;10.82;;;;;;;19.40;58.99;97186.63;2261601;79;21126;-83
2021/05/02 10:36:11;;;;;;;10.63;9.73;;;;;;;19.19;59.32;97198.27;2261622;78;21474;-83
2021/05/02 10:39:13;;;;;;;11.18;9.93;;;;;;;19.57;58.72;97192.44;2261811;78;21115;-82
2021/05/02 10:42:14;;;;;;;11.08;9.70;;;;;;;19.45;59.10;97199.63;2261249;78;21249;-82
2021/05/02 10:45:15;;;;;;;11.12;10.03;;;;;;;19.57;58.67;97196.41;2261627;78;21114;-79
2021/05/02 10:48:16;;;;;;;10.78;9.70;;;;;;;18.74;59.17;97196.86;2261520;78;21075;-79
2021/05/02 10:51:17;;;;;;;14.28;11.50;;;;;;;18.13;60.75;97212.79;2261241;78;21103;-79
2021/05/02 10:54:19;;;;;;;13.80;12.33;;;;;;;17.98;61.24;97213.00;2261390;79;21094;-78
2021/05/02 10:57:20;;;;;;;14.13;12.68;;;;;;;17.39;62.13;97221.63;2261570;78;21233;-79
2021/05/02 11:00:21;;;;;;;14.70;12.82;;;;;;;16.66;63.78;97225.83;2261458;78;21134;-80
2021/05/02 11:03:23;;;;;;;13.70;12.30;;;;;;;16.29;64.53;97239.45;2261658;78;21150;-80
2021/05/02 11:06:24;;;;;;;10.43;9.33;;;;;;;16.13;65.22;97233.02;2261418;78;21368;-79
2021/05/02 11:09:25;;;;;;;12.30;10.48;;;;;;;16.23;67.09;97221.23;2261416;78;21103;-80
2021/05/02 11:12:26;;;;;;;11.88;9.75;;;;;;;16.92;61.81;97262.18;2270267;78;21251;-82
2021/05/02 11:15:28;;;;;;;11.45;10.25;;;;;;;16.34;62.96;97271.73;2262552;78;21097;-82
2021/05/02 11:18:29;;;;;;;9.00;8.10;;;;;;;16.40;64.08;97279.41;2262597;78;21122;-83
2021/05/02 11:21:31;;;;;;;6.78;5.80;;;;;;;16.83;61.86;97284.02;2262409;79;21213;-83
2021/05/02 11:24:32;;;;;;;7.22;5.95;;;;;;;17.26;61.04;97281.49;2262696;78;21353;-82
2021/05/02 11:27:39;;;;;;;7.28;6.05;;;;;;;17.21;59.67;97284.31;2262559;78;21097;-82
2021/05/02 11:30:37;;;;;;;7.85;5.37;;;;;;;17.39;59.89;97280.98;2262385;78;21261;-83
2021/05/02 11:33:38;;;;;;;6.62;5.28;;;;;;;17.29;58.41;97291.46;2262952;78;21094;-82
2021/05/02 11:36:39;;;;;;;6.53;4.75;;;;;;;17.37;60.70;97296.47;2262558;78;21106;-84
2021/05/02 11:39:41;;;;;;;4.80;4.20;;;;;;;18.09;56.20;97303.63;2262538;78;21095;-82
2021/05/02 11:42:42;;;;;;;5.53;4.87;;;;;;;17.76;55.39;97308.53;2262405;78;21519;-82
2021/05/02 11:45:44;;;;;;;5.08;4.08;;;;;;;17.63;56.09;97317.84;2262451;78;21150;-82
2021/05/02 11:48:45;;;;;;;5.35;3.80;;;;;;;17.61;56.05;97315.72;2262958;79;21095;-82
2021/05/02 11:51:46;;;;;;;4.55;4.12;;;;;;;17.23;56.27;97315.89;2262771;78;21085;-81
2021/05/02 11:54:47;;;;;;;5.20;4.10;;;;;;;17.16;56.73;97319.23;2262701;78;21067;-81
2021/05/02 11:57:48;;;;;;;7.83;3.52;;;;;;;16.97;55.65;97336.20;2262605;78;21102;-81
2021/05/02 12:00:49;;;;;;;4.72;4.10;;;;;;;17.03;55.91;97345.20;2262979;78;21071;-82
2021/05/02 12:03:50;;;;;;;4.47;3.70;;;;;;;17.10;57.08;97350.64;2262504;78;21141;-81
2021/05/02 12:06:51;;;;;;;6.17;3.80;;;;;;;17.32;55.77;97344.55;2262708;78;21111;-82
2021/05/02 12:09:52;;;;;;;3.58;3.27;;;;;;;17.42;55.42;97347.25;2262697;78;21245;-81
2021/05/02 12:12:54;;;;;;;4.28;3.87;;;;;;;17.22;54.52;97348.00;2278715;77;21244;-81
2021/05/02 12:15:55;;;;;;;6.12;3.55;;;;;;;17.38;55.95;97365.44;2265584;78;21412;-82
2021/05/02 12:18:58;;;;;;;4.28;3.60;;;;;;;17.31;55.76;97359.97;2265646;78;21103;-81
2021/05/02 12:21:59;;;;;;;4.65;3.47;;;;;;;17.09;56.08;97379.23;2266018;78;21154;-81
2021/05/02 12:25:00;;;;;;;3.72;3.40;;;;;;;17.15;52.12;97381.64;2265618;79;21483;-81
2021/05/02 12:28:03;;;;;;;4.37;3.20;;;;;;;16.74;54.37;97380.98;2265150;79;21714;-81
2021/05/02 12:31:05;;;;;;;3.62;3.20;;;;;;;16.49;53.45;97400.27;2265365;78;21388;-81
2021/05/02 12:34:06;;;;;;;3.58;3.27;;;;;;;15.87;54.38;97406.27;2265239;78;21119;-82
2021/05/02 12:37:07;;;;;;;5.97;3.33;;;;;;;15.09;55.90;97420.42;2265332;78;21102;-82
2021/05/02 12:40:08;;;;;;;4.05;3.25;;;;;;;14.76;56.34;97426.17;2265497;79;21122;-82
2021/05/02 12:43:09;;;;;;;3.30;3.00;;;;;;;14.80;56.37;97440.94;2265300;78;21141;-81
2021/05/02 12:46:10;;;;;;;4.12;2.87;;;;;;;14.37;54.66;97471.33;2265444;79;21161;-81
2021/05/02 12:49:11;;;;;;;5.58;2.98;;;;;;;14.24;55.68;97446.30;2265702;78;21106;-82
2021/05/02 12:52:12;;;;;;;3.72;3.05;;;;;;;14.54;56.91;97444.23;2265437;78;21098;-81
2021/05/02 12:55:13;;;;;;;5.47;3.20;;;;;;;14.79;56.05;97444.92;2265441;78;21098;-81
2021/05/02 12:58:15;;;;;;;4.37;3.55;;;;;;;14.72;54.94;97444.64;2265704;78;21104;-81
2021/05/02 13:01:17;;;;;;;3.35;3.05;;;;;;;14.69;55.26;97456.55;2265683;78;21131;-82
2021/05/02 13:04:18;;;;;;;4.40;3.45;;;;;;;14.27;56.13;97477.27;2265563;79;21098;-81
2021/05/02 13:07:19;;;;;;;8.20;3.33;;;;;;;14.30;56.07;97494.70;2265399;78;21114;-81
2021/05/02 13:10:21;;;;;;;3.02;2.62;;;;;;;14.04;56.67;97499.25;2265437;78;21063;-81
2021/05/02 13:13:22;;;;;;;2.98;2.70;;;;;;;13.83;55.87;97496.64;2294790;78;21138;-80
2021/05/02 13:16:23;;;;;;;4.90;2.50;;;;;;;13.69;56.28;97507.89;2287431;77;21115;-80
2021/05/02 13:19:24;;;;;;;2.83;2.40;;;;;;;13.18;57.51;97513.31;2262400;78;21122;-80
2021/05/02 13:22:26;;;;;;;4.17;2.52;;;;;;;13.70;57.63;97514.86;2262456;79;21260;-82
2021/05/02 13:25:27;;;;;;;3.08;2.52;;;;;;;13.97;56.69;97534.40;2263169;78;21102;-81
2021/05/02 13:28:28;;;;;;;2.30;2.12;;;;;;;13.80;56.69;97541.74;2263546;78;21213;-80
2021/05/02 13:31:29;;;;;;;3.58;2.22;;;;;;;13.99;55.41;97548.34;2263760;78;21126;-81
2021/05/02 13:34:30;;;;;;;3.15;2.27;;;;;;;13.85;56.95;97556.94;2263364;79;21091;-82
2021/05/02 13:37:32;;;;;;;3.60;2.60;;;;;;;13.61;57.51;97572.29;2263584;78;21065;-81
2021/05/02 13:40:33;;;;;;;2.95;2.00;;;;;;;13.23;58.97;97580.91;2263753;78;21196;-80
2021/05/02 13:43:34;;;;;;;2.95;1.95;;;;;;;12.77;57.91;97574.25;2263027;78;21154;-81
2021/05/02 13:46:35;;;;;;;5.53;2.80;;;;;;;12.46;59.06;97580.44;2263314;79;21149;-81
2021/05/02 13:49:37;;;;;;;3.37;2.98;;;;;;;12.30;59.84;97581.12;2263583;78;21228;-80
2021/05/02 13:52:38;;;;;;;3.80;2.25;;;;;;;12.40;58.88;97585.77;2263047;78;21075;-83
2021/05/02 13:55:39;;;;;;;3.30;3.00;;;;;;;12.27;59.00;97592.94;2262729;78;21110;-81